createdAt,value
2018-05-11T00:00:57.354Z,69.10
2018-05-11T00:03:25.409Z,69.10
2018-05-11T00:05:53.490Z,69.00
2018-05-11T00:08:21.568Z,69.20
2018-05-11T00:10:49.635Z,69.50
2018-05-11T00:13:17.705Z,69.50
2018-05-11T00:15:45.783Z,69.50
2018-05-11T00:18:13.849Z,69.50
2018-05-11T00:20:41.908Z,69.50
2018-05-11T00:23:09.957Z,69.10
2018-05-11T00:25:38.766Z,69.00
2018-05-11T00:28:06.842Z,69.00
2018-05-11T00:30:34.895Z,69.20
2018-05-11T00:33:03.691Z,69.80
2018-05-11T00:35:31.769Z,69.80
2018-05-11T00:37:59.855Z,70.00
2018-05-11T00:40:27.913Z,70.10
2018-05-11T00:42:55.987Z,69.90
2018-05-11T00:45:24.058Z,70.00
2018-05-11T00:47:52.157Z,69.80
2018-05-11T00:50:20.208Z,70.20
2018-05-11T00:52:48.261Z,70.30
2018-05-11T00:55:28.929Z,70.10
2018-05-11T00:57:57.742Z,69.60
2018-05-11T01:00:25.781Z,69.50
2018-05-11T01:02:54.584Z,69.90
2018-05-11T01:05:22.667Z,70.10
2018-05-11T01:07:50.721Z,70.10
2018-05-11T01:10:18.798Z,70.40
2018-05-11T01:12:46.829Z,70.60
2018-05-11T01:15:14.906Z,70.30
2018-05-11T01:17:42.969Z,70.80
2018-05-11T01:20:11.058Z,71.40
2018-05-11T01:22:39.898Z,70.70
2018-05-11T01:25:08.055Z,70.60
2018-05-11T01:27:36.830Z,70.80
2018-05-11T01:30:04.920Z,70.60
2018-05-11T01:32:32.980Z,71.10
2018-05-11T01:35:01.023Z,70.70
2018-05-11T01:37:29.874Z,71.10
2018-05-11T01:39:57.931Z,70.50
2018-05-11T01:42:25.982Z,70.40
2018-05-11T01:44:54.042Z,70.60
2018-05-11T01:47:22.094Z,71.00
2018-05-11T01:49:51.087Z,71.20
2018-05-11T01:52:19.979Z,72.00
2018-05-11T01:54:48.043Z,71.80
2018-05-11T01:57:16.113Z,71.60
2018-05-11T01:59:44.145Z,71.60
2018-05-11T02:02:12.290Z,71.60
2018-05-11T02:04:40.338Z,71.80
2018-05-11T02:07:09.199Z,72.30
2018-05-11T02:09:37.233Z,71.80
2018-05-11T02:12:05.318Z,72.30
2018-05-11T02:14:33.374Z,72.50
2018-05-11T02:17:01.862Z,72.70
2018-05-11T02:19:30.654Z,73.30
2018-05-11T02:21:58.729Z,72.70
2018-05-11T02:24:26.756Z,72.80
2018-05-11T02:26:55.629Z,73.50
2018-05-11T02:29:23.698Z,73.00
2018-05-11T02:31:51.785Z,73.30
2018-05-11T02:34:20.605Z,74.10
2018-05-11T02:36:48.652Z,73.60
2018-05-11T02:39:17.482Z,74.20
2018-05-11T02:41:46.294Z,73.80
2018-05-11T02:44:14.374Z,73.60
2018-05-11T02:46:42.438Z,73.60
2018-05-11T02:49:10.506Z,73.90
2018-05-11T02:51:38.581Z,74.00
2018-05-11T02:54:06.655Z,73.70
2018-05-11T02:56:34.718Z,73.50
2018-05-11T02:59:02.790Z,73.50
2018-05-11T03:01:30.859Z,73.20
2018-05-11T03:03:58.960Z,73.30
2018-05-11T03:06:27.076Z,73.60
2018-05-11T03:08:55.126Z,73.60
2018-05-11T03:11:23.198Z,73.40
2018-05-11T03:13:51.289Z,73.40
2018-05-11T03:16:20.103Z,74.10
2018-05-11T03:18:48.263Z,73.50
2018-05-11T03:21:16.223Z,73.90
2018-05-11T03:23:44.297Z,73.60
2018-05-11T03:26:12.353Z,73.70
2018-05-11T03:28:40.437Z,73.60
2018-05-11T03:31:08.476Z,74.20
2018-05-11T03:33:37.325Z,74.20
2018-05-11T03:36:05.386Z,73.80
2018-05-11T03:38:33.459Z,74.20
2018-05-11T03:41:02.169Z,73.80
2018-05-11T03:43:30.230Z,74.20
2018-05-11T03:45:58.302Z,74.30
2018-05-11T03:48:26.404Z,73.60
2018-05-11T03:50:55.249Z,74.00
2018-05-11T03:53:23.317Z,73.30
2018-05-11T03:55:51.390Z,73.30
2018-05-11T03:58:19.461Z,73.50
2018-05-11T04:00:47.530Z,73.90
2018-05-11T04:03:28.164Z,73.90
2018-05-11T04:06:02.075Z,73.30
2018-05-11T04:08:44.732Z,73.10
2018-05-11T04:11:12.829Z,73.20
2018-05-11T04:13:40.879Z,73.10
2018-05-11T04:16:08.975Z,73.10
2018-05-11T04:18:37.005Z,73.10
2018-05-11T04:21:05.126Z,73.10
2018-05-11T04:23:33.965Z,73.80
2018-05-11T04:26:02.802Z,73.10
2018-05-11T04:28:30.875Z,73.20
2018-05-11T04:30:59.682Z,73.80
2018-05-11T04:33:27.746Z,72.90
2018-05-11T04:35:57.591Z,73.30
2018-05-11T04:38:25.609Z,72.60
2018-05-11T04:40:53.736Z,72.30
2018-05-11T04:43:22.559Z,72.20
2018-05-11T04:45:50.653Z,72.00
2018-05-11T04:48:19.490Z,71.70
2018-05-11T04:50:47.566Z,71.60
2018-05-11T04:53:16.039Z,71.10
2018-05-11T04:55:44.183Z,70.90
2018-05-11T04:58:12.206Z,70.90
2018-05-11T05:00:40.255Z,70.80
2018-05-11T05:03:08.318Z,70.90
2018-05-11T05:05:36.391Z,70.70
2018-05-11T05:08:04.440Z,71.00
2018-05-11T05:10:33.280Z,71.40
2018-05-11T05:13:01.327Z,70.80
2018-05-11T05:15:29.396Z,70.90
2018-05-11T05:17:57.460Z,70.80
2018-05-11T05:20:26.329Z,71.30
2018-05-11T05:22:54.359Z,70.80
2018-05-11T05:25:22.417Z,70.70
2018-05-11T05:27:50.506Z,70.50
2018-05-11T05:30:18.541Z,70.60
2018-05-11T05:32:46.631Z,70.60
2018-05-11T05:35:15.350Z,70.60
2018-05-11T05:37:44.206Z,70.00
2018-05-11T05:40:12.277Z,69.70
2018-05-11T05:42:40.347Z,69.30
2018-05-11T05:45:08.401Z,69.50
2018-05-11T05:47:36.537Z,70.00
2018-05-11T05:50:05.357Z,69.30
2018-05-11T05:52:33.446Z,68.60
2018-05-11T05:55:01.491Z,68.50
2018-05-11T05:57:29.568Z,68.00
2018-05-11T05:59:57.667Z,67.30
2018-05-11T06:02:27.379Z,67.60
2018-05-11T06:04:55.461Z,67.00
2018-05-11T06:07:23.546Z,67.50
2018-05-11T06:09:51.601Z,66.40
2018-05-11T06:12:19.672Z,66.40
2018-05-11T06:14:47.742Z,66.20
2018-05-11T06:17:15.801Z,65.60
2018-05-11T06:19:43.846Z,66.10
2018-05-11T06:22:11.913Z,66.50
2018-05-11T06:24:40.002Z,66.20
2018-05-11T06:27:08.090Z,65.60
2018-05-11T06:29:36.173Z,65.70
2018-05-11T06:32:04.250Z,64.90
2018-05-11T06:34:32.561Z,64.30
2018-05-11T06:37:00.515Z,64.80
2018-05-11T06:39:28.579Z,63.30
2018-05-11T06:41:56.617Z,63.80
2018-05-11T06:44:24.691Z,63.10
2018-05-11T06:46:52.756Z,62.80
2018-05-11T06:49:20.842Z,61.80
2018-05-11T06:51:49.635Z,58.90
2018-05-11T06:54:17.732Z,56.90
2018-05-11T06:56:45.761Z,57.40
2018-05-11T06:59:13.829Z,56.90
2018-05-11T07:01:41.968Z,54.40
2018-05-11T07:04:09.915Z,53.90
2018-05-11T07:06:37.985Z,53.40
2018-05-11T07:09:06.815Z,53.80
2018-05-11T07:11:35.284Z,51.80
2018-05-11T07:14:03.399Z,50.60
2018-05-11T07:16:31.429Z,49.60
2018-05-11T07:18:59.599Z,47.90
2018-05-11T07:21:27.630Z,48.40
2018-05-11T07:23:55.671Z,47.70
2018-05-11T07:26:23.748Z,46.60
2018-05-11T07:28:51.834Z,42.80
2018-05-11T07:31:19.899Z,42.50
2018-05-11T07:33:47.957Z,39.00
2018-05-11T07:36:16.016Z,36.40
2018-05-11T07:38:44.115Z,33.00
2018-05-11T07:41:12.149Z,30.90
2018-05-11T07:43:40.240Z,31.50
2018-05-11T07:46:08.298Z,32.00
2018-05-11T07:48:36.353Z,31.20
2018-05-11T07:51:04.421Z,29.60
2018-05-11T07:53:32.458Z,29.00
2018-05-11T07:56:00.555Z,28.60
2018-05-11T07:58:29.358Z,28.30
2018-05-11T08:00:57.421Z,28.20
2018-05-11T08:03:26.256Z,27.10
2018-05-11T08:05:54.332Z,27.10
2018-05-11T08:08:22.356Z,25.60
2018-05-11T08:10:50.415Z,26.10
2018-05-11T08:13:19.230Z,25.30
2018-05-11T08:15:47.329Z,25.20
2018-05-11T08:18:15.463Z,25.10
2018-05-11T08:20:43.542Z,25.00
2018-05-11T08:23:11.607Z,25.40
2018-05-11T08:25:40.629Z,25.70
2018-05-11T08:28:09.677Z,24.60
2018-05-11T08:30:38.871Z,24.30
2018-05-11T08:33:06.906Z,24.70
2018-05-11T08:35:34.970Z,25.20
2018-05-11T08:38:03.030Z,23.50
2018-05-11T08:40:31.089Z,21.80
2018-05-11T08:42:59.188Z,18.60
2018-05-11T08:45:27.730Z,18.00
2018-05-11T08:47:56.251Z,17.50
2018-05-11T08:50:25.207Z,18.40
2018-05-11T08:52:53.579Z,20.30
2018-05-11T08:55:22.397Z,22.70
2018-05-11T08:57:50.457Z,22.20
2018-05-11T09:00:18.535Z,23.30
2018-05-11T09:02:46.610Z,23.20
2018-05-11T09:05:14.680Z,21.50
2018-05-11T09:07:42.743Z,20.70
2018-05-11T09:10:10.818Z,21.30
2018-05-11T09:12:38.865Z,21.50
2018-05-11T09:15:07.688Z,20.60
2018-05-11T09:17:36.657Z,20.60
2018-05-11T09:20:04.699Z,18.80
2018-05-11T09:22:32.777Z,17.90
2018-05-11T09:25:00.828Z,16.70
2018-05-11T09:27:28.902Z,16.90
2018-05-11T09:29:56.937Z,18.60
2018-05-11T09:32:24.998Z,20.80
2018-05-11T09:34:53.038Z,21.40
2018-05-11T09:37:21.862Z,24.40
2018-05-11T09:39:50.081Z,23.90
2018-05-11T09:42:17.988Z,25.90
2018-05-11T09:44:46.160Z,26.80
2018-05-11T09:47:14.231Z,27.30
2018-05-11T09:49:42.286Z,27.20
2018-05-11T09:52:11.158Z,27.50
2018-05-11T09:54:39.251Z,27.50
2018-05-11T09:57:07.336Z,27.10
2018-05-11T09:59:35.405Z,27.40
2018-05-11T10:02:04.212Z,27.20
2018-05-11T10:04:32.269Z,27.20
2018-05-11T10:07:01.093Z,27.50
2018-05-11T10:09:29.119Z,27.50
2018-05-11T10:11:57.948Z,28.50
2018-05-11T10:14:25.978Z,28.50
2018-05-11T10:16:54.804Z,27.80
2018-05-11T10:19:22.843Z,27.80
2018-05-11T10:21:51.002Z,27.00
2018-05-11T10:24:19.816Z,28.40
2018-05-11T10:26:48.628Z,29.00
2018-05-11T10:29:16.664Z,29.00
2018-05-11T10:31:44.705Z,30.00
2018-05-11T10:34:12.785Z,30.50
2018-05-11T10:36:40.835Z,30.90
2018-05-11T10:39:08.901Z,31.50
2018-05-11T10:41:36.974Z,31.60
2018-05-11T10:44:05.018Z,31.90
2018-05-11T10:46:33.073Z,32.40
2018-05-11T10:49:01.109Z,32.00
2018-05-11T10:51:29.178Z,33.10
2018-05-11T10:53:57.230Z,33.10
2018-05-11T10:56:25.301Z,33.50
2018-05-11T10:58:53.350Z,33.20
2018-05-11T11:01:21.415Z,33.50
2018-05-11T11:03:49.489Z,34.00
2018-05-11T11:06:17.552Z,34.80
2018-05-11T11:08:45.638Z,35.20
2018-05-11T11:11:13.751Z,34.70
2018-05-11T11:13:42.583Z,35.00
2018-05-11T11:16:11.022Z,35.30
2018-05-11T11:18:39.095Z,35.70
2018-05-11T11:21:07.140Z,35.40
2018-05-11T11:23:35.189Z,35.40
2018-05-11T11:26:03.388Z,34.90
2018-05-11T11:28:31.370Z,35.20
2018-05-11T11:30:59.455Z,35.20
2018-05-11T11:33:29.026Z,35.40
2018-05-11T11:35:57.081Z,35.30
2018-05-11T11:38:25.149Z,34.90
2018-05-11T11:40:53.204Z,34.40
2018-05-11T11:43:21.237Z,33.60
2018-05-11T11:45:49.341Z,32.90
2018-05-11T11:48:17.376Z,32.70
2018-05-11T11:50:45.447Z,32.70
2018-05-11T11:53:14.265Z,32.70
2018-05-11T11:55:43.095Z,34.00
2018-05-11T11:58:11.132Z,33.50
2018-05-11T12:00:39.202Z,33.00
2018-05-11T12:03:07.252Z,33.80
2018-05-11T12:05:36.102Z,34.40
2018-05-11T12:08:04.135Z,34.00
2018-05-11T12:10:32.211Z,33.10
2018-05-11T12:13:00.275Z,33.70
2018-05-11T12:15:29.103Z,33.30
2018-05-11T12:17:57.150Z,32.70
2018-05-11T12:20:25.219Z,33.30
2018-05-11T12:22:53.277Z,32.20
2018-05-11T12:25:22.113Z,32.80
2018-05-11T12:27:50.180Z,32.30
2018-05-11T12:30:18.318Z,33.00
2018-05-11T12:32:47.150Z,33.90
2018-05-11T12:35:15.202Z,33.80
2018-05-11T12:37:43.254Z,34.20
2018-05-11T12:40:11.317Z,34.10
2018-05-11T12:42:39.376Z,33.30
2018-05-11T12:45:07.448Z,33.60
2018-05-11T12:47:36.251Z,33.70
2018-05-11T12:50:04.320Z,33.70
2018-05-11T12:52:33.130Z,33.00
2018-05-11T12:55:01.208Z,32.60
2018-05-11T12:57:29.234Z,32.40
2018-05-11T12:59:58.068Z,33.40
2018-05-11T13:02:26.130Z,33.40
2018-05-11T13:04:54.174Z,33.30
2018-05-11T13:07:22.923Z,33.90
2018-05-11T13:09:51.014Z,33.50
2018-05-11T13:12:19.086Z,34.00
2018-05-11T13:14:47.126Z,33.00
2018-05-11T13:17:15.226Z,32.70
2018-05-11T13:19:43.330Z,33.30
2018-05-11T13:22:11.770Z,33.30
2018-05-11T13:24:41.327Z,33.50
2018-05-11T13:27:09.385Z,33.40
2018-05-11T13:29:38.186Z,34.20
2018-05-11T13:32:06.344Z,33.50
2018-05-11T13:34:34.351Z,30.90
2018-05-11T13:37:02.399Z,31.10
2018-05-11T13:39:31.391Z,32.10
2018-05-11T13:41:59.461Z,32.20
2018-05-11T13:44:27.535Z,32.80
2018-05-11T13:46:55.627Z,34.60
2018-05-11T13:49:23.686Z,34.30
2018-05-11T13:51:51.822Z,34.60
2018-05-11T13:54:19.921Z,35.00
2018-05-11T13:56:47.996Z,34.70
2018-05-11T13:59:16.848Z,35.90
2018-05-11T14:01:44.896Z,34.90
2018-05-11T14:04:12.937Z,35.80
2018-05-11T14:06:41.053Z,35.70
2018-05-11T14:09:09.118Z,35.90
2018-05-11T14:11:38.572Z,35.70
2018-05-11T14:14:06.616Z,35.70
2018-05-11T14:16:35.451Z,36.00
2018-05-11T14:19:03.481Z,35.50
2018-05-11T14:21:33.736Z,36.90
2018-05-11T14:24:01.791Z,37.20
2018-05-11T14:26:29.897Z,38.10
2018-05-11T14:28:57.971Z,38.90
2018-05-11T14:31:26.058Z,38.80
2018-05-11T14:33:54.113Z,38.80
2018-05-11T14:36:22.198Z,37.90
2018-05-11T14:38:50.274Z,38.30
2018-05-11T14:41:18.342Z,37.80
2018-05-11T14:43:47.122Z,38.00
2018-05-11T14:46:15.221Z,37.30
2018-05-11T14:48:43.272Z,37.10
2018-05-11T14:51:11.323Z,37.30
2018-05-11T14:53:39.921Z,36.80
2018-05-11T14:56:07.972Z,37.10
2018-05-11T14:58:36.049Z,37.20
2018-05-11T15:01:04.883Z,37.30
2018-05-11T15:03:32.943Z,37.60
2018-05-11T15:06:01.810Z,37.40
2018-05-11T15:08:29.882Z,37.40
2018-05-11T15:10:57.938Z,35.70
2018-05-11T15:13:26.087Z,35.50
2018-05-11T15:15:54.129Z,35.00
2018-05-11T15:18:22.184Z,34.80
2018-05-11T15:20:50.254Z,34.80
2018-05-11T15:23:18.321Z,34.50
2018-05-11T15:25:46.366Z,34.00
2018-05-11T15:28:14.437Z,35.50
2018-05-11T15:33:13.352Z,37.30
2018-05-11T15:35:41.426Z,37.00
2018-05-11T15:38:09.490Z,36.60
2018-05-11T15:40:37.531Z,36.90
2018-05-11T15:43:06.351Z,36.60
2018-05-11T15:45:34.420Z,36.90
2018-05-11T15:48:02.497Z,36.60
2018-05-11T15:50:31.118Z,37.10
2018-05-11T15:52:59.182Z,37.20
2018-05-11T15:55:27.247Z,36.40
2018-05-11T15:57:55.343Z,36.60
2018-05-11T16:00:23.378Z,36.50
2018-05-11T16:02:51.524Z,37.30
2018-05-11T16:05:19.940Z,37.60
2018-05-11T16:07:48.010Z,37.50
2018-05-11T16:10:16.078Z,37.70
2018-05-11T16:12:44.177Z,37.50
2018-05-11T16:15:12.193Z,37.60
2018-05-11T16:17:40.264Z,37.30
2018-05-11T16:20:08.376Z,38.00
2018-05-11T16:22:36.432Z,38.40
2018-05-11T16:25:04.489Z,38.40
2018-05-11T16:27:32.594Z,38.80
2018-05-11T16:30:00.970Z,39.10
2018-05-11T16:32:29.110Z,39.50
2018-05-11T16:34:57.199Z,39.70
2018-05-11T16:37:25.287Z,39.50
2018-05-11T16:39:53.366Z,40.20
2018-05-11T16:42:21.416Z,40.10
2018-05-11T16:44:49.482Z,40.10
2018-05-11T16:47:17.553Z,40.20
2018-05-11T16:49:45.613Z,39.90
2018-05-11T16:52:13.688Z,40.80
2018-05-11T16:54:42.139Z,40.80
2018-05-11T16:57:10.189Z,40.80
2018-05-11T16:59:39.040Z,41.60
2018-05-11T17:02:07.102Z,41.00
2018-05-11T17:04:35.162Z,41.10
2018-05-11T17:07:03.234Z,41.90
2018-05-11T17:09:31.285Z,42.40
2018-05-11T17:12:00.114Z,43.00
2018-05-11T17:14:28.156Z,43.30
2018-05-11T17:16:57.134Z,43.60
2018-05-11T17:19:25.216Z,44.00
2018-05-11T17:21:54.025Z,45.30
2018-05-11T17:24:22.078Z,44.20
2018-05-11T17:26:50.131Z,44.60
2018-05-11T17:29:19.721Z,44.20
2018-05-11T17:31:47.780Z,44.60
2018-05-11T17:34:15.855Z,44.50
2018-05-11T17:36:43.903Z,44.80
2018-05-11T17:39:12.350Z,45.00
2018-05-11T17:41:40.488Z,45.00
2018-05-11T17:44:08.474Z,45.10
2018-05-11T17:46:38.072Z,45.00
2018-05-11T17:49:07.295Z,44.90
2018-05-11T17:51:35.354Z,45.50
2018-05-11T17:54:03.429Z,46.20
2018-05-11T17:56:31.513Z,46.80
2018-05-11T17:58:59.570Z,47.00
2018-05-11T18:01:27.667Z,47.10
2018-05-11T18:03:55.707Z,47.60
2018-05-11T18:06:24.538Z,48.20
2018-05-11T18:08:52.634Z,48.00
2018-05-11T18:11:20.712Z,48.40
2018-05-11T18:13:48.791Z,48.70
2018-05-11T18:16:16.879Z,48.50
2018-05-11T18:18:45.692Z,49.40
2018-05-11T18:21:13.754Z,49.50
2018-05-11T18:23:41.821Z,50.00
2018-05-11T18:26:10.778Z,50.70
2018-05-11T18:28:38.853Z,51.00
2018-05-11T18:31:06.911Z,51.30
2018-05-11T18:33:34.997Z,51.30
2018-05-11T18:36:03.099Z,51.20
2018-05-11T18:38:31.950Z,51.90
2018-05-11T18:41:00.055Z,51.60
2018-05-11T18:43:28.893Z,52.20
2018-05-11T18:45:56.943Z,51.80
2018-05-11T18:48:25.010Z,51.90
2018-05-11T18:50:53.064Z,52.50
2018-05-11T18:53:21.398Z,52.50
2018-05-11T18:55:49.214Z,52.60
2018-05-11T18:58:17.273Z,53.10
2018-05-11T19:00:46.118Z,54.30
2018-05-11T19:03:14.198Z,53.70
2018-05-11T19:05:42.299Z,53.90
2018-05-11T19:08:11.144Z,54.60
2018-05-11T19:10:39.222Z,54.40
2018-05-11T19:13:07.306Z,54.70
2018-05-11T19:15:35.361Z,55.00
2018-05-11T19:18:03.520Z,55.10
2018-05-11T19:20:31.497Z,55.40
2018-05-11T19:22:59.586Z,55.80
2018-05-11T19:25:28.513Z,55.70
2018-05-11T19:27:57.333Z,56.70
2018-05-11T19:30:25.417Z,56.30
2018-05-11T19:32:53.493Z,56.20
2018-05-11T19:35:21.589Z,56.50
2018-05-11T19:37:49.658Z,56.50
2018-05-11T19:40:17.735Z,56.60
2018-05-11T19:42:46.534Z,56.60
2018-05-11T19:45:15.383Z,57.70
2018-05-11T19:47:43.490Z,56.90
2018-05-11T19:50:11.571Z,56.90
2018-05-11T19:52:39.618Z,57.10
2018-05-11T19:55:07.891Z,57.10
2018-05-11T19:57:35.997Z,57.20
2018-05-11T20:00:04.788Z,57.80
2018-05-11T20:02:32.833Z,57.10
2018-05-11T20:05:00.903Z,57.40
2018-05-11T20:07:28.981Z,57.60
2018-05-11T20:09:57.279Z,57.60
2018-05-11T20:12:25.270Z,57.80
2018-05-11T20:14:53.356Z,57.90
2018-05-11T20:17:21.418Z,58.00
2018-05-11T20:19:49.844Z,58.20
2018-05-11T20:22:17.913Z,58.40
2018-05-11T20:24:46.066Z,58.70
2018-05-11T20:27:14.057Z,58.80
2018-05-11T20:29:42.132Z,58.70
2018-05-11T20:32:10.191Z,58.80
2018-05-11T20:34:38.262Z,59.10
2018-05-11T20:37:06.349Z,59.30
2018-05-11T20:39:34.414Z,59.50
2018-05-11T20:42:02.520Z,60.00
2018-05-11T20:44:31.343Z,60.90
2018-05-11T20:46:59.414Z,59.80
2018-05-11T20:49:27.505Z,60.40
2018-05-11T20:51:55.550Z,60.20
2018-05-11T20:54:23.645Z,60.40
2018-05-11T20:56:51.729Z,60.70
2018-05-11T20:59:19.786Z,60.80
2018-05-11T21:01:47.924Z,61.40
2018-05-11T21:04:15.929Z,61.20
2018-05-11T21:06:44.011Z,61.70
2018-05-11T21:09:12.828Z,61.30
2018-05-11T21:11:40.915Z,61.50
2018-05-11T21:14:09.742Z,62.30
2018-05-11T21:16:37.815Z,62.20
2018-05-11T21:19:05.887Z,62.50
2018-05-11T21:21:34.532Z,62.90
2018-05-11T21:24:02.622Z,63.00
2018-05-11T21:26:30.716Z,63.00
2018-05-11T21:28:58.811Z,63.40
2018-05-11T21:31:27.681Z,63.60
2018-05-11T21:33:55.749Z,64.00
2018-05-11T21:36:23.821Z,64.10
2018-05-11T21:38:51.877Z,66.50
2018-05-11T21:41:19.949Z,64.50
2018-05-11T21:43:47.982Z,64.90
2018-05-11T21:46:16.058Z,64.80
2018-05-11T21:51:13.422Z,65.10
2018-05-11T21:53:41.889Z,65.10
2018-05-11T21:56:09.939Z,65.70
2018-05-11T21:58:38.013Z,65.50
2018-05-11T22:01:06.081Z,65.50
2018-05-11T22:03:34.122Z,66.00
2018-05-11T22:06:02.287Z,65.80
2018-05-11T22:08:31.059Z,66.20
2018-05-11T22:10:59.862Z,66.90
2018-05-11T22:13:28.350Z,66.50
2018-05-11T22:15:56.422Z,66.60
2018-05-11T22:18:24.491Z,67.10
2018-05-11T22:20:52.567Z,67.10
2018-05-11T22:23:20.657Z,67.30
2018-05-11T22:25:48.698Z,67.40
2018-05-11T22:28:17.548Z,68.00
2018-05-11T22:30:45.625Z,67.70
2018-05-11T22:33:13.709Z,68.20
2018-05-11T22:35:42.583Z,69.50
2018-05-11T22:38:10.657Z,68.00
2018-05-11T22:40:38.768Z,68.10
2018-05-11T22:43:07.597Z,68.80
2018-05-11T22:45:35.666Z,68.50
2018-05-11T22:48:03.738Z,68.80
2018-05-11T22:50:31.779Z,68.60
2018-05-11T22:52:59.834Z,68.70
2018-05-11T22:55:28.675Z,69.30
2018-05-11T22:57:56.727Z,68.90
2018-05-11T23:00:44.527Z,68.60
2018-05-11T23:03:12.643Z,68.90
2018-05-11T23:05:40.674Z,68.40
2018-05-11T23:08:09.525Z,68.80
2018-05-11T23:10:37.616Z,68.50
2018-05-11T23:13:05.694Z,68.30
2018-05-11T23:15:33.767Z,68.40
2018-05-11T23:18:01.806Z,68.50
2018-05-11T23:20:29.917Z,68.10
2018-05-11T23:22:58.001Z,68.30
2018-05-11T23:25:26.062Z,68.90
2018-05-11T23:27:54.920Z,68.80
2018-05-11T23:30:22.956Z,68.30
2018-05-11T23:32:51.043Z,68.20
2018-05-11T23:35:19.111Z,68.50
2018-05-11T23:37:47.174Z,68.10
2018-05-11T23:40:15.239Z,68.70
2018-05-11T23:42:44.095Z,68.20
2018-05-11T23:45:12.938Z,69.00
2018-05-11T23:47:41.027Z,68.50
2018-05-11T23:50:09.078Z,68.40
2018-05-11T23:52:37.150Z,68.40
2018-05-11T23:55:05.246Z,68.30
2018-05-11T23:57:33.338Z,68.50
